sensor_id;sensor_type;location;lat;lon;timestamp;temperature;humidity
11091;DHT22;5599;52.210;21.046;2023-03-01T00:01:51;0.30;63.00
11091;DHT22;5599;52.210;21.046;2023-03-01T00:04:20;0.30;99.90
11091;DHT22;5599;52.210;21.046;2023-03-01T00:06:50;0.20;99.90
11091;DHT22;5599;52.210;21.046;2023-03-01T00:09:19;0.20;1.00
11091;DHT22;5599;52.210;21.046;2023-03-01T00:11:50;0.30;1.00
11091;DHT22;5599;52.210;21.046;2023-03-01T00:14:20;0.20;1.00
11091;DHT22;5599;52.210;21.046;2023-03-01T00:16:49;0.20;1.00
11091;DHT22;5599;52.210;21.046;2023-03-01T00:19:20;0.10;1.00
11091;DHT22;5599;52.210;21.046;2023-03-01T00:21:50;0.20;36.60
11091;DHT22;5599;52.210;21.046;2023-03-01T00:24:19;0.20;1.00
11091;DHT22;5599;52.210;21.046;2023-03-01T00:26:52;0.20;1.00
11091;DHT22;5599;52.210;21.046;2023-03-01T00:29:23;0.20;3.00
11091;DHT22;5599;52.210;21.046;2023-03-01T00:31:53;0.30;51.10
11091;DHT22;5599;52.210;21.046;2023-03-01T00:34:22;0.20;50.00
11091;DHT22;5599;52.210;21.046;2023-03-01T00:36:52;0.20;73.10
11091;DHT22;5599;52.210;21.046;2023-03-01T00:39:21;0.20;54.50
11091;DHT22;5599;52.210;21.046;2023-03-01T00:41:52;0.10;99.90
11091;DHT22;5599;52.210;21.046;2023-03-01T00:44:22;0.00;99.90
11091;DHT22;5599;52.210;21.046;2023-03-01T00:46:51;0.10;1.00
11091;DHT22;5599;52.210;21.046;2023-03-01T00:49:21;0.10;99.90
11091;DHT22;5599;52.210;21.046;2023-03-01T00:51:52;0.10;1.00
11091;DHT22;5599;52.210;21.046;2023-03-01T00:54:23;0.00;1.00
11091;DHT22;5599;52.210;21.046;2023-03-01T00:56:54;0.00;1.00
11091;DHT22;5599;52.210;21.046;2023-03-01T00:59:24;0.10;1.00
11091;DHT22;5599;52.210;21.046;2023-03-01T01:01:53;0.00;6.30
11091;DHT22;5599;52.210;21.046;2023-03-01T01:04:23;0.00;1.00
11091;DHT22;5599;52.210;21.046;2023-03-01T01:06:52;0.00;1.00
11091;DHT22;5599;52.210;21.046;2023-03-01T01:09:22;0.00;1.00
11091;DHT22;5599;52.210;21.046;2023-03-01T01:11:51;0.00;55.50
11091;DHT22;5599;52.210;21.046;2023-03-01T01:14:22;0.00;99.90
11091;DHT22;5599;52.210;21.046;2023-03-01T01:16:52;0.00;1.00
11091;DHT22;5599;52.210;21.046;2023-03-01T01:19:23;0.00;1.00
11091;DHT22;5599;52.210;21.046;2023-03-01T01:21:55;-0.10;1.00
11091;DHT22;5599;52.210;21.046;2023-03-01T01:24:24;-0.10;1.00
11091;DHT22;5599;52.210;21.046;2023-03-01T01:26:54;-0.10;99.90
11091;DHT22;5599;52.210;21.046;2023-03-01T01:29:24;-0.10;99.90
11091;DHT22;5599;52.210;21.046;2023-03-01T01:31:54;-0.10;1.00
11091;DHT22;5599;52.210;21.046;2023-03-01T01:34:24;-0.10;1.00
11091;DHT22;5599;52.210;21.046;2023-03-01T01:36:53;-0.10;1.00
11091;DHT22;5599;52.210;21.046;2023-03-01T01:39:23;-0.10;1.00
11091;DHT22;5599;52.210;21.046;2023-03-01T01:41:52;-0.10;1.00
11091;DHT22;5599;52.210;21.046;2023-03-01T01:44:25;-0.10;44.30
11091;DHT22;5599;52.210;21.046;2023-03-01T01:46:57;-0.10;49.30
11091;DHT22;5599;52.210;21.046;2023-03-01T01:49:32;-0.10;1.00
11091;DHT22;5599;52.210;21.046;2023-03-01T01:52:09;0.00;1.00
11091;DHT22;5599;52.210;21.046;2023-03-01T01:54:43;0.00;1.00
11091;DHT22;5599;52.210;21.046;2023-03-01T01:57:18;0.00;1.00
11091;DHT22;5599;52.210;21.046;2023-03-01T01:59:52;-0.10;99.90
11091;DHT22;5599;52.210;21.046;2023-03-01T02:02:23;-0.10;1.00
11091;DHT22;5599;52.210;21.046;2023-03-01T02:05:01;-0.10;1.00
11091;DHT22;5599;52.210;21.046;2023-03-01T02:07:32;-0.10;1.00
11091;DHT22;5599;52.210;21.046;2023-03-01T02:10:02;-0.10;1.00
11091;DHT22;5599;52.210;21.046;2023-03-01T02:12:32;-0.10;1.00
11091;DHT22;5599;52.210;21.046;2023-03-01T02:15:05;0.00;1.00
11091;DHT22;5599;52.210;21.046;2023-03-01T02:17:35;0.00;1.00
11091;DHT22;5599;52.210;21.046;2023-03-01T02:20:12;0.00;99.90
11091;DHT22;5599;52.210;21.046;2023-03-01T02:22:45;0.00;99.90
11091;DHT22;5599;52.210;21.046;2023-03-01T02:25:27;0.00;99.90
11091;DHT22;5599;52.210;21.046;2023-03-01T02:28:04;0.00;99.90
11091;DHT22;5599;52.210;21.046;2023-03-01T02:30:39;0.00;99.90
11091;DHT22;5599;52.210;21.046;2023-03-01T02:33:30;0.00;99.90
11091;DHT22;5599;52.210;21.046;2023-03-01T02:36:02;0.00;99.90
11091;DHT22;5599;52.210;21.046;2023-03-01T02:38:33;0.00;99.90
11091;DHT22;5599;52.210;21.046;2023-03-01T02:41:02;0.00;1.80
11091;DHT22;5599;52.210;21.046;2023-03-01T02:43:34;0.00;1.00
11091;DHT22;5599;52.210;21.046;2023-03-01T02:46:08;0.00;99.90
11091;DHT22;5599;52.210;21.046;2023-03-01T02:48:44;0.00;99.90
11091;DHT22;5599;52.210;21.046;2023-03-01T02:51:31;0.00;99.90
11091;DHT22;5599;52.210;21.046;2023-03-01T02:54:11;0.00;99.90
11091;DHT22;5599;52.210;21.046;2023-03-01T02:56:42;-0.10;99.90
11091;DHT22;5599;52.210;21.046;2023-03-01T02:59:12;-0.10;99.90
11091;DHT22;5599;52.210;21.046;2023-03-01T03:01:43;-0.20;1.00
11091;DHT22;5599;52.210;21.046;2023-03-01T03:04:16;-0.20;1.00
11091;DHT22;5599;52.210;21.046;2023-03-01T03:06:49;-0.20;39.00
11091;DHT22;5599;52.210;21.046;2023-03-01T03:09:19;-0.20;51.00
11091;DHT22;5599;52.210;21.046;2023-03-01T03:11:48;-0.20;1.00
11091;DHT22;5599;52.210;21.046;2023-03-01T03:14:18;-0.20;1.00
11091;DHT22;5599;52.210;21.046;2023-03-01T03:16:50;-0.20;1.00
11091;DHT22;5599;52.210;21.046;2023-03-01T03:19:19;-0.20;1.00
11091;DHT22;5599;52.210;21.046;2023-03-01T03:21:49;-0.30;38.00
11091;DHT22;5599;52.210;21.046;2023-03-01T03:24:19;-0.20;1.00
11091;DHT22;5599;52.210;21.046;2023-03-01T03:26:48;-0.20;80.60
11091;DHT22;5599;52.210;21.046;2023-03-01T03:29:18;-0.20;1.00
11091;DHT22;5599;52.210;21.046;2023-03-01T03:31:48;-0.20;48.70
11091;DHT22;5599;52.210;21.046;2023-03-01T03:34:18;-0.20;1.00
11091;DHT22;5599;52.210;21.046;2023-03-01T03:36:47;-0.20;1.00
11091;DHT22;5599;52.210;21.046;2023-03-01T03:39:16;-0.30;1.00
11091;DHT22;5599;52.210;21.046;2023-03-01T03:41:47;-0.30;99.90
11091;DHT22;5599;52.210;21.046;2023-03-01T03:44:16;-0.30;1.00
11091;DHT22;5599;52.210;21.046;2023-03-01T03:46:45;-0.30;27.00
11091;DHT22;5599;52.210;21.046;2023-03-01T03:49:16;-0.30;1.00
11091;DHT22;5599;52.210;21.046;2023-03-01T03:51:46;-0.40;1.00
11091;DHT22;5599;52.210;21.046;2023-03-01T03:54:15;-0.30;27.90
11091;DHT22;5599;52.210;21.046;2023-03-01T03:56:44;-0.20;1.00
11091;DHT22;5599;52.210;21.046;2023-03-01T03:59:14;-0.30;99.90
11091;DHT22;5599;52.210;21.046;2023-03-01T04:01:43;-0.30;99.90
11091;DHT22;5599;52.210;21.046;2023-03-01T04:04:13;-0.30;1.00
11091;DHT22;5599;52.210;21.046;2023-03-01T04:06:46;-0.30;1.00
11091;DHT22;5599;52.210;21.046;2023-03-01T04:09:16;-0.20;1.00
11091;DHT22;5599;52.210;21.046;2023-03-01T04:11:46;-0.20;1.00
11091;DHT22;5599;52.210;21.046;2023-03-01T04:14:15;-0.20;99.90
11091;DHT22;5599;52.210;21.046;2023-03-01T04:16:45;-0.20;99.90
11091;DHT22;5599;52.210;21.046;2023-03-01T04:19:14;-0.20;1.00
11091;DHT22;5599;52.210;21.046;2023-03-01T04:21:43;-0.20;99.90
11091;DHT22;5599;52.210;21.046;2023-03-01T04:24:14;-0.20;99.90
11091;DHT22;5599;52.210;21.046;2023-03-01T04:26:44;-0.30;99.90
11091;DHT22;5599;52.210;21.046;2023-03-01T04:29:13;-0.30;99.90
11091;DHT22;5599;52.210;21.046;2023-03-01T04:31:42;-0.30;99.90
11091;DHT22;5599;52.210;21.046;2023-03-01T04:34:12;-0.30;99.90
11091;DHT22;5599;52.210;21.046;2023-03-01T04:36:41;-0.30;99.90
11091;DHT22;5599;52.210;21.046;2023-03-01T04:39:11;-0.30;99.90
11091;DHT22;5599;52.210;21.046;2023-03-01T04:41:42;-0.30;99.90
11091;DHT22;5599;52.210;21.046;2023-03-01T04:44:11;-0.30;99.90
11091;DHT22;5599;52.210;21.046;2023-03-01T04:46:41;-0.30;1.00
11091;DHT22;5599;52.210;21.046;2023-03-01T04:49:10;-0.30;1.00
11091;DHT22;5599;52.210;21.046;2023-03-01T04:51:39;-0.30;99.90
11091;DHT22;5599;52.210;21.046;2023-03-01T04:54:08;-0.40;99.90
11091;DHT22;5599;52.210;21.046;2023-03-01T04:56:38;-0.40;1.00
11091;DHT22;5599;52.210;21.046;2023-03-01T04:59:09;-0.40;1.00
11091;DHT22;5599;52.210;21.046;2023-03-01T05:01:40;-0.40;99.90
11091;DHT22;5599;52.210;21.046;2023-03-01T05:04:10;-0.50;1.00
11091;DHT22;5599;52.210;21.046;2023-03-01T05:06:40;-0.50;99.90
11091;DHT22;5599;52.210;21.046;2023-03-01T05:09:10;-0.50;99.90
11091;DHT22;5599;52.210;21.046;2023-03-01T05:11:39;-0.40;1.00
11091;DHT22;5599;52.210;21.046;2023-03-01T05:14:11;-0.50;99.90
11091;DHT22;5599;52.210;21.046;2023-03-01T05:16:40;-0.50;99.90
11091;DHT22;5599;52.210;21.046;2023-03-01T05:19:09;-0.60;1.00
11091;DHT22;5599;52.210;21.046;2023-03-01T05:21:43;-0.50;1.00
11091;DHT22;5599;52.210;21.046;2023-03-01T05:24:33;-0.50;1.00
11091;DHT22;5599;52.210;21.046;2023-03-01T05:27:03;-0.40;1.00
11091;DHT22;5599;52.210;21.046;2023-03-01T05:29:35;-0.40;1.00
11091;DHT22;5599;52.210;21.046;2023-03-01T05:32:04;-0.50;1.00
11091;DHT22;5599;52.210;21.046;2023-03-01T05:34:35;-0.40;1.00
11091;DHT22;5599;52.210;21.046;2023-03-01T05:37:04;-0.40;1.00
11091;DHT22;5599;52.210;21.046;2023-03-01T05:39:35;-0.30;1.00
11091;DHT22;5599;52.210;21.046;2023-03-01T05:42:05;-0.20;1.00
11091;DHT22;5599;52.210;21.046;2023-03-01T05:44:38;-0.20;1.00
11091;DHT22;5599;52.210;21.046;2023-03-01T05:47:07;-0.20;1.00
11091;DHT22;5599;52.210;21.046;2023-03-01T05:49:37;-0.10;1.00
11091;DHT22;5599;52.210;21.046;2023-03-01T05:52:06;0.00;99.90
11091;DHT22;5599;52.210;21.046;2023-03-01T05:54:36;0.00;99.90
11091;DHT22;5599;52.210;21.046;2023-03-01T05:57:05;0.00;99.90
11091;DHT22;5599;52.210;21.046;2023-03-01T05:59:34;0.10;68.90
11091;DHT22;5599;52.210;21.046;2023-03-01T06:02:05;0.20;99.90
11091;DHT22;5599;52.210;21.046;2023-03-01T06:04:35;0.20;1.00
11091;DHT22;5599;52.210;21.046;2023-03-01T06:07:05;0.30;1.00
11091;DHT22;5599;52.210;21.046;2023-03-01T06:09:34;0.40;1.00
11091;DHT22;5599;52.210;21.046;2023-03-01T06:12:04;0.60;99.90
11091;DHT22;5599;52.210;21.046;2023-03-01T06:14:34;0.70;99.90
11091;DHT22;5599;52.210;21.046;2023-03-01T06:17:04;0.80;1.00
11091;DHT22;5599;52.210;21.046;2023-03-01T06:19:34;0.90;1.00
11091;DHT22;5599;52.210;21.046;2023-03-01T06:22:03;1.00;99.90
11091;DHT22;5599;52.210;21.046;2023-03-01T06:24:32;1.20;31.60
11091;DHT22;5599;52.210;21.046;2023-03-01T06:27:02;1.30;1.00
11091;DHT22;5599;52.210;21.046;2023-03-01T06:29:31;1.40;1.00
11091;DHT22;5599;52.210;21.046;2023-03-01T06:32:00;1.70;1.00
11091;DHT22;5599;52.210;21.046;2023-03-01T06:34:31;2.10;1.00
11091;DHT22;5599;52.210;21.046;2023-03-01T06:37:01;2.70;99.90
11091;DHT22;5599;52.210;21.046;2023-03-01T06:39:32;3.20;1.00
11091;DHT22;5599;52.210;21.046;2023-03-01T06:42:03;3.70;1.00
11091;DHT22;5599;52.210;21.046;2023-03-01T06:44:32;4.10;99.90
11091;DHT22;5599;52.210;21.046;2023-03-01T06:47:02;4.60;99.90
11091;DHT22;5599;52.210;21.046;2023-03-01T06:49:33;5.00;1.00
11091;DHT22;5599;52.210;21.046;2023-03-01T06:52:03;5.30;99.90
11091;DHT22;5599;52.210;21.046;2023-03-01T06:54:32;5.60;99.90
11091;DHT22;5599;52.210;21.046;2023-03-01T06:57:02;6.00;99.90
11091;DHT22;5599;52.210;21.046;2023-03-01T06:59:31;6.20;95.40
11091;DHT22;5599;52.210;21.046;2023-03-01T07:02:00;6.40;51.50
11091;DHT22;5599;52.210;21.046;2023-03-01T07:04:30;6.40;1.00
11091;DHT22;5599;52.210;21.046;2023-03-01T07:07:01;6.50;99.90
11091;DHT22;5599;52.210;21.046;2023-03-01T07:09:30;6.60;1.00
11091;DHT22;5599;52.210;21.046;2023-03-01T07:12:00;6.70;1.00
11091;DHT22;5599;52.210;21.046;2023-03-01T07:14:29;6.70;1.00
11091;DHT22;5599;52.210;21.046;2023-03-01T07:16:58;6.80;1.00
11091;DHT22;5599;52.210;21.046;2023-03-01T07:19:27;6.90;1.00
11091;DHT22;5599;52.210;21.046;2023-03-01T07:21:57;6.90;1.00
11091;DHT22;5599;52.210;21.046;2023-03-01T07:24:28;7.20;1.00
11091;DHT22;5599;52.210;21.046;2023-03-01T07:26:58;7.30;1.00
11091;DHT22;5599;52.210;21.046;2023-03-01T07:29:27;7.50;1.00
11091;DHT22;5599;52.210;21.046;2023-03-01T07:31:57;7.90;1.00
11091;DHT22;5599;52.210;21.046;2023-03-01T07:34:27;8.10;1.00
11091;DHT22;5599;52.210;21.046;2023-03-01T07:36:56;8.10;99.90
11091;DHT22;5599;52.210;21.046;2023-03-01T07:39:27;8.00;1.00
11091;DHT22;5599;52.210;21.046;2023-03-01T07:41:56;8.20;99.90
11091;DHT22;5599;52.210;21.046;2023-03-01T07:44:26;8.30;99.90
11091;DHT22;5599;52.210;21.046;2023-03-01T07:46:56;8.60;99.90
11091;DHT22;5599;52.210;21.046;2023-03-01T07:49:26;8.90;1.00
11091;DHT22;5599;52.210;21.046;2023-03-01T07:51:55;9.20;1.00
11091;DHT22;5599;52.210;21.046;2023-03-01T07:54:27;9.30;1.00
11091;DHT22;5599;52.210;21.046;2023-03-01T07:57:01;9.70;1.00
11091;DHT22;5599;52.210;21.046;2023-03-01T07:59:32;9.90;1.00
11091;DHT22;5599;52.210;21.046;2023-03-01T08:02:03;10.10;7.40
11091;DHT22;5599;52.210;21.046;2023-03-01T08:04:34;10.40;99.90
11091;DHT22;5599;52.210;21.046;2023-03-01T08:07:06;10.80;99.90
11091;DHT22;5599;52.210;21.046;2023-03-01T08:09:40;10.90;99.90
11091;DHT22;5599;52.210;21.046;2023-03-01T08:12:11;11.20;99.90
11091;DHT22;5599;52.210;21.046;2023-03-01T08:14:42;11.40;99.90
11091;DHT22;5599;52.210;21.046;2023-03-01T08:17:14;11.80;99.90
11091;DHT22;5599;52.210;21.046;2023-03-01T08:19:44;12.20;99.90
11091;DHT22;5599;52.210;21.046;2023-03-01T08:22:15;12.30;1.00
11091;DHT22;5599;52.210;21.046;2023-03-01T08:24:48;12.40;99.90
11091;DHT22;5599;52.210;21.046;2023-03-01T08:27:19;12.70;1.00
11091;DHT22;5599;52.210;21.046;2023-03-01T08:29:53;12.80;1.00
11091;DHT22;5599;52.210;21.046;2023-03-01T08:32:23;12.80;99.90
11091;DHT22;5599;52.210;21.046;2023-03-01T08:34:55;12.90;1.00
11091;DHT22;5599;52.210;21.046;2023-03-01T08:37:27;13.10;1.00
11091;DHT22;5599;52.210;21.046;2023-03-01T08:40:01;13.10;99.90
11091;DHT22;5599;52.210;21.046;2023-03-01T08:42:36;13.40;1.00
11091;DHT22;5599;52.210;21.046;2023-03-01T08:45:08;13.60;99.90
11091;DHT22;5599;52.210;21.046;2023-03-01T08:47:38;13.50;1.00
11091;DHT22;5599;52.210;21.046;2023-03-01T08:50:08;13.40;99.90
11091;DHT22;5599;52.210;21.046;2023-03-01T08:52:38;13.20;1.00
11091;DHT22;5599;52.210;21.046;2023-03-01T08:55:09;13.10;1.00
11091;DHT22;5599;52.210;21.046;2023-03-01T08:57:39;13.10;99.90
11091;DHT22;5599;52.210;21.046;2023-03-01T09:00:09;13.20;1.00
11091;DHT22;5599;52.210;21.046;2023-03-01T09:02:42;13.30;1.00
11091;DHT22;5599;52.210;21.046;2023-03-01T09:05:14;13.10;99.90
11091;DHT22;5599;52.210;21.046;2023-03-01T09:07:46;13.10;1.00
11091;DHT22;5599;52.210;21.046;2023-03-01T09:10:17;13.10;1.00
11091;DHT22;5599;52.210;21.046;2023-03-01T09:12:47;12.80;99.90
11091;DHT22;5599;52.210;21.046;2023-03-01T09:15:17;12.80;99.90
11091;DHT22;5599;52.210;21.046;2023-03-01T09:17:47;13.00;99.90
11091;DHT22;5599;52.210;21.046;2023-03-01T09:20:16;13.00;99.90
11091;DHT22;5599;52.210;21.046;2023-03-01T09:22:46;13.00;1.00
11091;DHT22;5599;52.210;21.046;2023-03-01T09:27:47;12.00;1.00
11091;DHT22;5599;52.210;21.046;2023-03-01T09:30:17;11.90;1.00
11091;DHT22;5599;52.210;21.046;2023-03-01T09:32:46;11.90;1.00
11091;DHT22;5599;52.210;21.046;2023-03-01T09:37:47;11.20;1.00
11091;DHT22;5599;52.210;21.046;2023-03-01T09:40:21;11.00;1.00
11091;DHT22;5599;52.210;21.046;2023-03-01T09:42:55;10.80;99.90
11091;DHT22;5599;52.210;21.046;2023-03-01T09:45:31;10.80;99.90
11091;DHT22;5599;52.210;21.046;2023-03-01T09:48:03;10.90;99.90
11091;DHT22;5599;52.210;21.046;2023-03-01T09:50:35;11.00;99.90
11091;DHT22;5599;52.210;21.046;2023-03-01T09:53:12;11.20;54.40
11091;DHT22;5599;52.210;21.046;2023-03-01T09:55:48;11.20;99.90
11091;DHT22;5599;52.210;21.046;2023-03-01T09:58:38;11.20;99.90
11091;DHT22;5599;52.210;21.046;2023-03-01T10:01:26;11.20;1.00
11091;DHT22;5599;52.210;21.046;2023-03-01T10:04:09;11.30;1.00
11091;DHT22;5599;52.210;21.046;2023-03-01T10:06:44;11.10;1.00
11091;DHT22;5599;52.210;21.046;2023-03-01T10:09:17;11.10;99.90
11091;DHT22;5599;52.210;21.046;2023-03-01T10:11:51;11.10;1.00
11091;DHT22;5599;52.210;21.046;2023-03-01T10:14:29;11.10;99.90
11091;DHT22;5599;52.210;21.046;2023-03-01T10:17:02;11.00;99.90
11091;DHT22;5599;52.210;21.046;2023-03-01T10:19:38;10.80;1.00
11091;DHT22;5599;52.210;21.046;2023-03-01T10:22:13;10.80;1.00
11091;DHT22;5599;52.210;21.046;2023-03-01T10:24:43;10.90;4.40
11091;DHT22;5599;52.210;21.046;2023-03-01T10:27:19;10.80;99.90
11091;DHT22;5599;52.210;21.046;2023-03-01T10:29:58;10.90;99.90
11091;DHT22;5599;52.210;21.046;2023-03-01T10:32:44;11.00;99.90
11091;DHT22;5599;52.210;21.046;2023-03-01T10:35:35;11.20;1.00
11091;DHT22;5599;52.210;21.046;2023-03-01T10:38:13;11.10;99.90
11091;DHT22;5599;52.210;21.046;2023-03-01T10:40:54;11.20;71.10
11091;DHT22;5599;52.210;21.046;2023-03-01T10:43:32;11.30;1.00
11091;DHT22;5599;52.210;21.046;2023-03-01T10:46:23;11.30;1.00
11091;DHT22;5599;52.210;21.046;2023-03-01T10:49:15;11.40;1.00
11091;DHT22;5599;52.210;21.046;2023-03-01T10:51:50;11.20;1.00
11091;DHT22;5599;52.210;21.046;2023-03-01T10:54:24;11.20;99.90
11091;DHT22;5599;52.210;21.046;2023-03-01T10:56:57;11.00;1.00
11091;DHT22;5599;52.210;21.046;2023-03-01T10:59:30;10.80;99.90
11091;DHT22;5599;52.210;21.046;2023-03-01T11:02:16;10.70;1.00
11091;DHT22;5599;52.210;21.046;2023-03-01T11:05:19;10.70;1.00
11091;DHT22;5599;52.210;21.046;2023-03-01T11:07:50;10.60;99.90
11091;DHT22;5599;52.210;21.046;2023-03-01T11:10:22;10.40;1.00
11091;DHT22;5599;52.210;21.046;2023-03-01T11:12:52;9.90;1.00
11091;DHT22;5599;52.210;21.046;2023-03-01T11:15:26;9.60;99.90
11091;DHT22;5599;52.210;21.046;2023-03-01T11:17:56;9.60;1.00
11091;DHT22;5599;52.210;21.046;2023-03-01T11:20:40;9.60;1.00
11091;DHT22;5599;52.210;21.046;2023-03-01T11:23:12;9.60;1.00
11091;DHT22;5599;52.210;21.046;2023-03-01T11:25:43;9.90;1.00
11091;DHT22;5599;52.210;21.046;2023-03-01T11:28:16;10.00;1.00
11091;DHT22;5599;52.210;21.046;2023-03-01T11:30:51;10.00;1.00
11091;DHT22;5599;52.210;21.046;2023-03-01T11:33:39;10.00;1.00
11091;DHT22;5599;52.210;21.046;2023-03-01T11:36:19;10.10;99.90
11091;DHT22;5599;52.210;21.046;2023-03-01T11:38:53;10.10;1.00
11091;DHT22;5599;52.210;21.046;2023-03-01T11:41:27;10.20;1.00
11091;DHT22;5599;52.210;21.046;2023-03-01T11:44:00;10.00;1.00
11091;DHT22;5599;52.210;21.046;2023-03-01T11:47:10;9.90;1.00
11091;DHT22;5599;52.210;21.046;2023-03-01T11:49:52;10.00;99.90
11091;DHT22;5599;52.210;21.046;2023-03-01T11:52:32;10.00;99.90
11091;DHT22;5599;52.210;21.046;2023-03-01T11:55:17;10.20;1.00
11091;DHT22;5599;52.210;21.046;2023-03-01T11:58:03;10.30;1.00
11091;DHT22;5599;52.210;21.046;2023-03-01T12:00:55;10.30;1.00
11091;DHT22;5599;52.210;21.046;2023-03-01T12:03:38;10.20;1.00
11091;DHT22;5599;52.210;21.046;2023-03-01T12:06:35;10.20;99.90
11091;DHT22;5599;52.210;21.046;2023-03-01T12:09:25;10.20;1.00
11091;DHT22;5599;52.210;21.046;2023-03-01T12:12:16;10.20;99.90
11091;DHT22;5599;52.210;21.046;2023-03-01T12:14:55;10.40;99.90
11091;DHT22;5599;52.210;21.046;2023-03-01T12:17:48;10.60;99.90
11091;DHT22;5599;52.210;21.046;2023-03-01T12:20:30;10.80;1.00
11091;DHT22;5599;52.210;21.046;2023-03-01T12:23:23;10.80;99.90
11091;DHT22;5599;52.210;21.046;2023-03-01T12:26:00;10.70;1.00
11091;DHT22;5599;52.210;21.046;2023-03-01T12:28:46;10.60;61.30
11091;DHT22;5599;52.210;21.046;2023-03-01T12:31:49;10.50;99.90
11091;DHT22;5599;52.210;21.046;2023-03-01T12:34:33;10.20;99.90
11091;DHT22;5599;52.210;21.046;2023-03-01T12:37:21;10.30;1.00
11091;DHT22;5599;52.210;21.046;2023-03-01T12:40:00;10.30;99.90
11091;DHT22;5599;52.210;21.046;2023-03-01T12:42:39;10.40;12.70
11091;DHT22;5599;52.210;21.046;2023-03-01T12:45:46;10.40;1.00
11091;DHT22;5599;52.210;21.046;2023-03-01T12:48:28;10.40;43.30
11091;DHT22;5599;52.210;21.046;2023-03-01T12:51:04;10.30;1.00
11091;DHT22;5599;52.210;21.046;2023-03-01T12:53:41;10.40;99.90
11091;DHT22;5599;52.210;21.046;2023-03-01T12:56:15;10.50;1.00
11091;DHT22;5599;52.210;21.046;2023-03-01T12:58:55;10.60;99.90
11091;DHT22;5599;52.210;21.046;2023-03-01T13:01:35;10.60;99.90
11091;DHT22;5599;52.210;21.046;2023-03-01T13:04:28;10.50;99.90
11091;DHT22;5599;52.210;21.046;2023-03-01T13:07:20;10.40;1.00
11091;DHT22;5599;52.210;21.046;2023-03-01T13:10:00;10.40;99.90
11091;DHT22;5599;52.210;21.046;2023-03-01T13:13:01;10.40;1.00
11091;DHT22;5599;52.210;21.046;2023-03-01T13:15:33;10.50;59.00
11091;DHT22;5599;52.210;21.046;2023-03-01T13:18:25;10.50;99.90
11091;DHT22;5599;52.210;21.046;2023-03-01T13:20:56;10.50;99.90
11091;DHT22;5599;52.210;21.046;2023-03-01T13:23:28;10.60;54.80
11091;DHT22;5599;52.210;21.046;2023-03-01T13:26:14;10.70;1.00
11091;DHT22;5599;52.210;21.046;2023-03-01T13:28:54;10.80;4.70
11091;DHT22;5599;52.210;21.046;2023-03-01T13:31:58;10.90;1.00
11091;DHT22;5599;52.210;21.046;2023-03-01T13:34:46;10.80;6.10
11091;DHT22;5599;52.210;21.046;2023-03-01T13:37:21;10.70;1.00
11091;DHT22;5599;52.210;21.046;2023-03-01T13:39:51;10.60;99.90
11091;DHT22;5599;52.210;21.046;2023-03-01T13:42:37;10.70;1.00
11091;DHT22;5599;52.210;21.046;2023-03-01T13:45:19;10.80;1.00
11091;DHT22;5599;52.210;21.046;2023-03-01T13:47:54;10.80;99.90
11091;DHT22;5599;52.210;21.046;2023-03-01T13:50:28;11.00;1.00
11091;DHT22;5599;52.210;21.046;2023-03-01T13:53:03;11.10;99.90
11091;DHT22;5599;52.210;21.046;2023-03-01T13:55:40;11.20;99.90
11091;DHT22;5599;52.210;21.046;2023-03-01T13:58:20;11.40;1.00
11091;DHT22;5599;52.210;21.046;2023-03-01T14:00:56;11.60;1.00
11091;DHT22;5599;52.210;21.046;2023-03-01T14:03:27;11.60;99.90
11091;DHT22;5599;52.210;21.046;2023-03-01T14:06:00;11.50;99.90
11091;DHT22;5599;52.210;21.046;2023-03-01T14:08:43;11.50;99.90
11091;DHT22;5599;52.210;21.046;2023-03-01T14:11:46;11.40;1.00
11091;DHT22;5599;52.210;21.046;2023-03-01T14:14:32;11.20;1.00
11091;DHT22;5599;52.210;21.046;2023-03-01T14:17:26;11.00;99.90
11091;DHT22;5599;52.210;21.046;2023-03-01T14:20:00;10.90;1.00
11091;DHT22;5599;52.210;21.046;2023-03-01T14:22:33;10.70;1.00
11091;DHT22;5599;52.210;21.046;2023-03-01T14:25:06;10.70;99.90
11091;DHT22;5599;52.210;21.046;2023-03-01T14:27:51;10.70;99.90
11091;DHT22;5599;52.210;21.046;2023-03-01T14:30:26;10.60;1.00
11091;DHT22;5599;52.210;21.046;2023-03-01T14:32:57;10.30;99.90
11091;DHT22;5599;52.210;21.046;2023-03-01T14:35:29;10.20;99.90
11091;DHT22;5599;52.210;21.046;2023-03-01T14:37:59;10.20;99.90
11091;DHT22;5599;52.210;21.046;2023-03-01T14:40:30;10.20;1.00
11091;DHT22;5599;52.210;21.046;2023-03-01T14:43:08;10.20;1.00
11091;DHT22;5599;52.210;21.046;2023-03-01T14:45:40;10.20;1.00
11091;DHT22;5599;52.210;21.046;2023-03-01T14:48:16;10.30;1.00
11091;DHT22;5599;52.210;21.046;2023-03-01T14:50:46;10.20;1.00
11091;DHT22;5599;52.210;21.046;2023-03-01T14:53:17;10.20;1.00
11091;DHT22;5599;52.210;21.046;2023-03-01T14:55:50;10.20;1.00
11091;DHT22;5599;52.210;21.046;2023-03-01T14:58:22;10.10;99.90
11091;DHT22;5599;52.210;21.046;2023-03-01T15:00:55;10.00;99.90
11091;DHT22;5599;52.210;21.046;2023-03-01T15:03:30;10.00;1.00
11091;DHT22;5599;52.210;21.046;2023-03-01T15:06:01;10.00;98.40
11091;DHT22;5599;52.210;21.046;2023-03-01T15:08:31;9.90;4.60
11091;DHT22;5599;52.210;21.046;2023-03-01T15:11:04;9.90;1.00
11091;DHT22;5599;52.210;21.046;2023-03-01T15:13:36;9.80;99.90
11091;DHT22;5599;52.210;21.046;2023-03-01T15:16:11;9.80;99.90
11091;DHT22;5599;52.210;21.046;2023-03-01T15:18:45;9.70;99.90
11091;DHT22;5599;52.210;21.046;2023-03-01T15:21:17;9.80;99.90
11091;DHT22;5599;52.210;21.046;2023-03-01T15:23:52;9.70;1.00
11091;DHT22;5599;52.210;21.046;2023-03-01T15:26:27;9.60;99.90
11091;DHT22;5599;52.210;21.046;2023-03-01T15:28:59;9.50;1.00
11091;DHT22;5599;52.210;21.046;2023-03-01T15:31:33;9.40;99.90
11091;DHT22;5599;52.210;21.046;2023-03-01T15:34:23;9.30;99.90
11091;DHT22;5599;52.210;21.046;2023-03-01T15:36:53;9.20;99.90
11091;DHT22;5599;52.210;21.046;2023-03-01T15:39:35;9.20;99.90
11091;DHT22;5599;52.210;21.046;2023-03-01T15:42:08;9.10;99.90
11091;DHT22;5599;52.210;21.046;2023-03-01T15:44:40;9.00;1.00
11091;DHT22;5599;52.210;21.046;2023-03-01T15:47:39;9.00;99.90
11091;DHT22;5599;52.210;21.046;2023-03-01T15:50:16;8.90;1.00
11091;DHT22;5599;52.210;21.046;2023-03-01T15:52:47;8.90;1.00
11091;DHT22;5599;52.210;21.046;2023-03-01T15:55:19;8.80;1.00
11091;DHT22;5599;52.210;21.046;2023-03-01T15:57:49;8.70;1.00
11091;DHT22;5599;52.210;21.046;2023-03-01T16:00:20;8.70;99.90
11091;DHT22;5599;52.210;21.046;2023-03-01T16:02:51;8.60;1.00
11091;DHT22;5599;52.210;21.046;2023-03-01T16:05:23;8.40;99.90
11091;DHT22;5599;52.210;21.046;2023-03-01T16:07:54;8.30;1.00
11091;DHT22;5599;52.210;21.046;2023-03-01T16:10:24;8.20;1.00
11091;DHT22;5599;52.210;21.046;2023-03-01T16:12:54;8.20;1.00
11091;DHT22;5599;52.210;21.046;2023-03-01T16:15:28;8.00;1.00
11091;DHT22;5599;52.210;21.046;2023-03-01T16:18:01;7.90;1.00
11091;DHT22;5599;52.210;21.046;2023-03-01T16:20:31;7.80;1.00
11091;DHT22;5599;52.210;21.046;2023-03-01T16:23:03;7.70;1.00
11091;DHT22;5599;52.210;21.046;2023-03-01T16:25:35;7.70;1.00
11091;DHT22;5599;52.210;21.046;2023-03-01T16:28:05;7.60;1.00
11091;DHT22;5599;52.210;21.046;2023-03-01T16:30:38;7.60;99.90
11091;DHT22;5599;52.210;21.046;2023-03-01T16:33:09;7.50;1.00